Maragheh, Iran
Current Conditions -  °F | °C
As of 1:00 AM on Friday 28 Nov 2014 (Local Time) from OITM Reporting Station
Scattered Clouds Scattered Clouds  
Wind Chill: 39°   Ceiling: Unl
Heat Index: 39°   Visibility: 6mi
Dew Point: 34°   Wind: 2mph
Humidity: 81%   Direction: NA
Pressure: 30.06"   Gusts: NA
Location:  37.38°N, 46.27°E
Report Text: OITM 272100Z VRB02KT 9999 FEW030CB FEW035 SCT080 04/01 Q1018
Loading
Personal Weather Stations






























Interactive Weather Map New forecast layout! Learn more

10-Day Weather Forecast

Advertisements
Track Severe Weather on mobile